Time;durP1;ratioP1;P1;durP2;ratioP2;P2;SDS_P1;SDS_P2;PMS_P1;PMS_P2;Temp;Humidity;BMP_temperature;BMP_pressure;BME280_temperature;BME280_humidity;BME280_pressure;Samples;Min_cycle;Max_cycle;Signal;HPM_P1;HPM_P2
2021/12/18 10:19:34;;;;;;;;;;;8.60;99.90;;;;;;6210566;22;1953335;-89
2021/12/18 15:10:50;;;;;;;;;;;;;;;;;;;;;
2021/12/18 15:13:47;;;;;;;;;;;8.00;99.90;;;;;;6174535;23;19920;-94
2021/12/18 15:20:06;;;;;;;;;;;;;;;;;;;;;
2021/12/18 15:26:34;;;;;;;;;;;;;;;;;;;;;
2021/12/18 17:55:45;;;;;;;;;;;;;;;;;;;;;
2021/12/18 17:58:14;;;;;;;;;;;8.20;99.90;;;;;;6307859;22;19985;-92
2021/12/18 18:00:45;;;;;;;;;;;8.40;99.90;;;;;;6283185;22;20385;-93
2021/12/18 18:03:13;;;;;;;;;;;8.10;99.90;;;;;;6290453;22;19927;-93
2021/12/18 18:05:59;;;;;;;;;;;7.30;99.90;;;;;;6261957;22;19915;-93
2021/12/18 18:08:40;;;;;;;;;;;7.40;99.90;;;;;;6309931;22;19968;-92
2021/12/18 18:11:18;;;;;;;;;;;7.20;99.90;;;;;;6263521;22;19914;-94
2021/12/18 18:13:44;;;;;;;;;;;7.40;99.90;;;;;;6292558;22;20285;-94
2021/12/18 18:16:09;;;;;;;;;;;7.50;99.90;;;;;;6285938;22;19915;-91
2021/12/18 18:18:38;;;;;;;;;;;7.80;99.90;;;;;;6260934;22;19918;-91
2021/12/18 18:21:09;;;;;;;;;;;6.80;99.90;;;;;;6262800;22;19915;-91
2021/12/18 18:24:09;;;;;;;;;;;7.10;99.90;;;;;;6263867;22;20250;-96
2021/12/18 18:26:34;;;;;;;;;;;7.20;99.90;;;;;;6239319;22;19926;-94
2021/12/18 18:29:07;;;;;;;;;;;7.60;99.90;;;;;;6261330;22;19914;-92
2021/12/18 18:31:36;;;;;;;;;;;7.00;99.90;;;;;;6260583;22;19985;-91
2021/12/18 18:34:01;;;;;;;;;;;7.80;99.90;;;;;;6260669;22;19918;-91
2021/12/18 18:36:29;;;;;;;;;;;6.70;99.90;;;;;;6260420;22;19915;-91
2021/12/18 18:38:55;;;;;;;;;;;7.70;99.90;;;;;;6260396;22;19994;-92
2021/12/18 18:41:28;;;;;;;;;;;7.20;99.90;;;;;;6259879;22;19946;-90
2021/12/18 18:43:53;;;;;;;;;;;7.80;99.90;;;;;;6287329;22;19991;-92
2021/12/18 18:46:46;;;;;;;;;;;6.90;99.90;;;;;;6262743;22;19915;-91
2021/12/18 18:49:10;;;;;;;;;;;7.00;99.90;;;;;;6292292;22;19945;-92
2021/12/18 18:51:41;;;;;;;;;;;6.30;99.90;;;;;;6220803;22;20240;-92
2021/12/18 18:54:06;;;;;;;;;;;7.80;99.90;;;;;;6145255;23;19931;-91
2021/12/18 18:56:36;;;;;;;;;;;7.70;99.90;;;;;;6193083;23;19915;-93
2021/12/18 18:59:05;;;;;;;;;;;6.90;99.90;;;;;;6220611;23;19915;-91
2021/12/18 19:01:34;;;;;;;;;;;6.90;99.90;;;;;;6211026;23;19937;-93
2021/12/18 19:04:03;;;;;;;;;;;6.90;99.90;;;;;;6175442;23;19947;-92
2021/12/18 19:06:28;;;;;;;;;;;6.80;99.90;;;;;;6220343;23;20228;-91
2021/12/18 19:08:54;;;;;;;;;;;6.80;99.90;;;;;;6193374;23;19915;-92
2021/12/18 19:11:22;;;;;;;;;;;7.60;99.90;;;;;;6193929;23;19923;-92
2021/12/18 19:13:56;;;;;;;;;;;6.70;99.90;;;;;;6193324;23;19927;-92
2021/12/18 19:16:28;;;;;;;;;;;6.80;99.90;;;;;;6193913;23;19955;-93
2021/12/18 19:19:09;;;;;;;;;;;7.10;99.90;;;;;;6193789;23;19943;-92
2021/12/18 19:21:51;;;;;;;;;;;6.70;99.90;;;;;;6201294;23;19920;-93
2021/12/18 19:24:19;;;;;;;;;;;6.80;99.90;;;;;;6221691;22;19908;-93
2021/12/18 19:26:45;;;;;;;;;;;6.80;99.90;;;;;;6162723;23;19919;-92
2021/12/18 19:29:11;;;;;;;;;;;7.40;99.90;;;;;;6164406;23;20256;-92
2021/12/18 19:31:41;;;;;;;;;;;6.50;99.90;;;;;;6163911;23;19924;-93
2021/12/18 19:34:10;;;;;;;;;;;7.20;99.90;;;;;;6165256;23;19920;-93
2021/12/18 19:36:38;;;;;;;;;;;7.70;99.90;;;;;;6145900;23;20264;-96
2021/12/18 19:39:07;;;;;;;;;;;6.60;99.90;;;;;;6164381;23;19916;-94
2021/12/18 19:41:39;;;;;;;;;;;6.70;99.90;;;;;;6163201;23;19922;-93
2021/12/18 19:44:05;;;;;;;;;;;6.60;99.90;;;;;;6159840;23;19916;-92
2021/12/18 19:47:00;;;;;;;;;;;;;;;;;;;;;
2021/12/18 19:50:05;;;;;;;;;;;;;;;;;;;;;
2021/12/18 19:57:55;;;;;;;;;;;;;;;;;;;;;
2021/12/18 20:00:27;;;;;;;;;;;6.80;99.90;;;;;;6256805;22;19925;-94
2021/12/18 20:06:15;;;;;;;;;;;7.70;99.90;;;;;;6281610;22;19958;-93
2021/12/18 20:08:40;;;;;;;;;;;6.80;99.90;;;;;;6251596;22;19915;-93
2021/12/18 20:14:27;;;;;;;;;;;;;;;;;;;;;
2021/12/18 20:17:29;;;;;;;;;;;;;;;;;;;;;
2021/12/18 20:20:00;;;;;;;;;;;6.90;99.90;;;;;;6277480;22;20361;-92
2021/12/18 20:22:34;;;;;;;;;;;6.40;99.90;;;;;;6235132;22;19915;-93
2021/12/18 20:25:21;;;;;;;;;;;7.50;99.90;;;;;;6228167;22;20058;-93
2021/12/18 20:30:34;;;;;;;;;;;6.90;99.90;;;;;;6255272;22;19919;-91
2021/12/18 20:33:00;;;;;;;;;;;7.10;99.90;;;;;;6228612;22;20208;-93
2021/12/18 20:35:29;;;;;;;;;;;7.30;99.90;;;;;;6251675;22;20315;-93
2021/12/18 20:40:54;;;;;;;;;;;6.80;99.90;;;;;;6255240;22;19946;-93
2021/12/18 20:43:22;;;;;;;;;;;6.70;99.90;;;;;;6243559;22;19941;-93
2021/12/18 20:45:55;;;;;;;;;;;7.20;99.90;;;;;;6225284;22;19922;-93
2021/12/18 20:48:20;;;;;;;;;;;6.90;99.90;;;;;;6229497;22;19915;-91
2021/12/18 20:50:51;;;;;;;;;;;6.90;99.90;;;;;;6227223;22;20000;-92
2021/12/18 20:53:19;;;;;;;;;;;6.90;99.90;;;;;;6228307;22;19919;-93
2021/12/18 20:56:18;;;;;;;;;;;;;;;;;;;;;
2021/12/18 20:58:57;;;;;;;;;;;;;;;;;;;;;
2021/12/18 21:01:27;;;;;;;;;;;6.90;99.90;;;;;;6224933;22;20286;-93
2021/12/18 21:06:54;;;;;;;;;;;7.00;99.90;;;;;;6185574;22;20319;-94
2021/12/18 21:09:50;;;;;;;;;;;7.70;99.90;;;;;;6203349;22;19915;-95
2021/12/18 21:18:17;;;;;;;;;;;;;;;;;;;;;
2021/12/18 21:21:14;;;;;;;;;;;6.30;99.90;;;;;;6139162;23;19991;-93
2021/12/18 21:24:54;;;;;;;;;;;7.00;99.90;;;;;;6157549;23;19962;-95
2021/12/18 21:27:11;;;;;;;;;;;;;;;;;;;;;
2021/12/18 21:32:31;;;;;;;;;;;6.60;99.90;;;;;;6154001;23;19981;-92
2021/12/18 21:37:42;;;;;;;;;;;7.40;99.90;;;;;;6167103;23;19923;-94
2021/12/18 21:40:09;;;;;;;;;;;7.10;99.90;;;;;;6191009;23;19920;-91
2021/12/18 21:42:36;;;;;;;;;;;7.00;99.90;;;;;;6142564;23;19943;-90
2021/12/18 21:45:13;;;;;;;;;;;7.80;99.90;;;;;;6168708;23;19920;-92
2021/12/18 21:47:43;;;;;;;;;;;7.10;99.90;;;;;;6166020;23;19963;-92
2021/12/18 21:52:52;;;;;;;;;;;7.00;99.90;;;;;;6274272;22;19919;-93
2021/12/18 21:55:53;;;;;;;;;;;;;;;;;;;;;
2021/12/18 21:58:26;;;;;;;;;;;7.10;99.90;;;;;;6210584;22;19919;-93
2021/12/18 22:01:06;;;;;;;;;;;7.10;99.90;;;;;;6209688;22;19922;-94
2021/12/18 22:03:32;;;;;;;;;;;7.10;99.90;;;;;;6231696;22;19915;-92
2021/12/18 22:06:03;;;;;;;;;;;7.10;99.90;;;;;;6231412;22;20435;-94
2021/12/18 22:08:36;;;;;;;;;;;7.10;99.90;;;;;;6260824;22;19915;-91
2021/12/18 22:11:53;;;;;;;;;;;;;;;;;;;;;
2021/12/18 22:15:11;;;;;;;;;;;6.30;99.90;;;;;;6304370;22;19934;-94
2021/12/18 22:17:40;;;;;;;;;;;7.20;99.90;;;;;;6284558;22;19919;-92
2021/12/18 22:20:08;;;;;;;;;;;7.10;99.90;;;;;;6230716;22;19959;-93
2021/12/18 22:22:38;;;;;;;;;;;6.80;99.90;;;;;;6281435;22;19915;-92
2021/12/18 22:25:06;;;;;;;;;;;7.10;99.90;;;;;;6230995;22;19918;-92
2021/12/18 22:27:35;;;;;;;;;;;7.10;99.90;;;;;;6231247;22;19915;-95
2021/12/18 22:30:03;;;;;;;;;;;8.20;99.90;;;;;;6232090;22;19915;-92
2021/12/18 22:32:29;;;;;;;;;;;7.10;99.90;;;;;;6233016;22;20345;-93
2021/12/18 22:35:09;;;;;;;;;;;7.10;99.90;;;;;;6284652;22;19921;-91
2021/12/18 22:37:34;;;;;;;;;;;6.40;99.90;;;;;;6230952;22;19915;-91
2021/12/18 22:40:01;;;;;;;;;;;7.10;99.90;;;;;;6230393;22;20029;-93
2021/12/18 23:07:11;;;;;;;;;;;7.10;99.90;;;;;;6257215;22;19965;-93
2021/12/18 23:10:00;;;;;;;;;;;6.90;99.90;;;;;;6259481;22;19914;-95
2021/12/18 23:12:28;;;;;;;;;;;7.40;99.90;;;;;;6256530;22;20348;-93
2021/12/18 23:15:24;;;;;;;;;;;7.00;99.90;;;;;;6231908;22;19918;-94
2021/12/18 23:18:17;;;;;;;;;;;;;;;;;;;;;
2021/12/18 23:21:10;;;;;;;;;;;;;;;;;;;;;
2021/12/18 23:23:46;;;;;;;;;;;6.40;99.90;;;;;;6255086;22;19919;-93
2021/12/18 23:26:30;;;;;;;;;;;7.10;99.90;;;;;;6256417;22;19951;-93
2021/12/18 23:28:56;;;;;;;;;;;7.60;99.90;;;;;;6228303;22;19919;-94
2021/12/18 23:31:42;;;;;;;;;;;7.10;99.90;;;;;;6228223;22;20380;-92
2021/12/18 23:34:10;;;;;;;;;;;7.00;99.90;;;;;;6228358;22;19926;-92
2021/12/18 23:36:40;;;;;;;;;;;6.40;99.90;;;;;;6228199;22;19950;-92
2021/12/18 23:39:06;;;;;;;;;;;6.90;99.90;;;;;;6230011;22;19953;-93
2021/12/18 23:41:42;;;;;;;;;;;7.10;99.90;;;;;;6227804;22;19955;-93
2021/12/18 23:46:52;;;;;;;;;;;7.10;99.90;;;;;;6257088;22;19915;-92
2021/12/18 23:49:36;;;;;;;;;;;8.00;99.90;;;;;;6228378;22;19934;-92
2021/12/18 23:52:22;;;;;;;;;;;;;;;;;;;;;
2021/12/18 23:54:56;;;;;;;;;;;7.10;99.90;;;;;;6256171;22;19937;-93
2021/12/18 23:57:34;;;;;;;;;;;7.10;99.90;;;;;;6279852;22;19919;-92
